Time;durP1;ratioP1;P1;durP2;ratioP2;P2;SDS_P1;SDS_P2;PMS_P1;PMS_P2;Temp;Humidity;BMP_temperature;BMP_pressure;BME280_temperature;BME280_humidity;BME280_pressure;Samples;Min_cycle;Max_cycle;Signal;HPM_P1;HPM_P2
2023/04/18 00:01:21;;;;;;;26.00;17.35;;;333.20;2329.60;;;;;;5047123;28;20027;-64
2023/04/18 00:03:48;;;;;;;25.38;16.60;;;333.20;2329.60;;;;;;5050222;28;20033;-62
2023/04/18 00:06:14;;;;;;;24.95;14.88;;;333.20;2329.60;;;;;;5050864;28;20045;-64
2023/04/18 00:08:39;;;;;;;19.13;13.52;;;333.20;2329.60;;;;;;5050324;28;20079;-65
2023/04/18 00:11:05;;;;;;;25.17;16.10;;;333.00;2329.60;;;;;;5050614;28;20074;-65
2023/04/18 00:13:31;;;;;;;27.67;15.55;;;333.10;2329.60;;;;;;5048752;28;20048;-65
2023/04/18 00:15:57;;;;;;;19.30;12.35;;;333.10;2329.60;;;;;;5050237;28;20029;-63
2023/04/18 00:18:25;;;;;;;17.42;12.15;;;333.20;2329.60;;;;;;5045684;28;20116;-64
2023/04/18 00:20:52;;;;;;;17.25;10.02;;;333.20;2329.60;;;;;;5032910;28;20018;-65
2023/04/18 00:23:20;;;;;;;16.65;11.27;;;332.90;2329.60;;;;;;5041026;28;20029;-65
2023/04/18 00:25:46;;;;;;;15.38;11.77;;;332.80;2329.60;;;;;;5050378;28;20100;-65
2023/04/18 00:28:12;;;;;;;15.50;11.25;;;332.90;2329.60;;;;;;5051208;28;20550;-66
2023/04/18 00:30:38;;;;;;;18.42;11.75;;;332.90;2329.60;;;;;;5050571;28;20111;-64
2023/04/18 00:33:03;;;;;;;14.07;11.93;;;333.00;2329.60;;;;;;5050617;28;20108;-63
2023/04/18 00:35:30;;;;;;;17.60;11.57;;;333.00;2329.60;;;;;;5050489;28;20025;-64
2023/04/18 00:37:56;;;;;;;16.52;12.15;;;333.10;2329.60;;;;;;5051083;28;20009;-64
2023/04/18 00:40:22;;;;;;;13.77;10.45;;;332.90;2329.60;;;;;;5049866;28;20029;-65
2023/04/18 00:42:48;;;;;;;14.20;10.45;;;333.00;2329.60;;;;;;5050046;28;20119;-64
2023/04/18 00:45:13;;;;;;;17.42;11.30;;;333.00;2329.60;;;;;;5050949;28;20033;-64
2023/04/18 00:47:39;;;;;;;18.13;12.38;;;333.10;2329.60;;;;;;5050455;28;20743;-65
2023/04/18 00:50:05;;;;;;;20.83;12.82;;;333.00;2329.60;;;;;;5050498;28;20151;-64
2023/04/18 00:52:34;;;;;;;17.77;10.63;;;332.90;2329.60;;;;;;5050196;28;20033;-68
2023/04/18 00:55:02;;;;;;;17.85;12.68;;;332.90;2329.60;;;;;;5049979;28;20043;-67
2023/04/18 00:57:28;;;;;;;25.15;15.02;;;333.00;2329.60;;;;;;5050410;28;20021;-66
2023/04/18 00:59:54;;;;;;;20.13;14.15;;;333.00;2329.60;;;;;;5050109;28;20048;-63
2023/04/18 01:02:20;;;;;;;21.13;12.05;;;333.00;2329.60;;;;;;5050243;28;20136;-64
2023/04/18 01:04:46;;;;;;;15.05;10.55;;;332.90;2329.60;;;;;;5049787;28;20029;-65
2023/04/18 01:07:13;;;;;;;16.48;13.30;;;332.90;2329.60;;;;;;5050374;28;20028;-63
2023/04/18 01:09:39;;;;;;;18.33;13.55;;;332.90;2329.60;;;;;;5049657;28;20031;-65
2023/04/18 01:12:05;;;;;;;20.25;14.52;;;332.90;2329.60;;;;;;5050080;28;20212;-63
2023/04/18 01:14:31;;;;;;;19.10;14.18;;;332.90;2329.60;;;;;;5049989;28;20034;-64
2023/04/18 01:16:57;;;;;;;21.50;14.68;;;332.90;2329.60;;;;;;5049912;28;20013;-62
2023/04/18 01:19:23;;;;;;;19.30;11.93;;;332.80;2329.60;;;;;;5036674;28;20021;-65
2023/04/18 01:21:49;;;;;;;15.05;11.18;;;308.10;2304.00;;;;;;5050295;28;20481;-65
2023/04/18 01:24:16;;;;;;;17.98;12.70;;;332.80;2329.60;;;;;;5036900;28;20024;-65
2023/04/18 01:26:44;;;;;;;18.80;12.82;;;308.10;2304.00;;;;;;5050324;28;20017;-66
2023/04/18 01:29:10;;;;;;;19.42;14.60;;;308.10;2304.00;;;;;;5049067;28;20032;-66
2023/04/18 01:31:39;;;;;;;18.88;13.25;;;308.10;2304.00;;;;;;5049802;28;20025;-66
2023/04/18 01:34:05;;;;;;;17.65;13.38;;;308.10;2176.00;;;;;;5049614;28;20109;-65
2023/04/18 01:36:32;;;;;;;17.60;11.80;;;308.10;1920.00;;;;;;5049366;28;20025;-65
2023/04/18 01:38:58;;;;;;;16.88;12.07;;;308.00;2304.00;;;;;;5049287;28;20040;-65
2023/04/18 01:41:24;;;;;;;16.33;10.48;;;308.10;2304.00;;;;;;5049867;28;20037;-66
2023/04/18 01:43:50;;;;;;;14.30;10.75;;;308.10;2304.00;;;;;;5049361;28;20064;-66
2023/04/18 01:46:16;;;;;;;14.10;10.82;;;308.00;2304.00;;;;;;5049778;28;20025;-65
2023/04/18 01:48:42;;;;;;;13.68;11.10;;;308.00;2304.00;;;;;;5049000;28;20029;-65
2023/04/18 01:51:07;;;;;;;15.68;10.93;;;307.90;2304.00;;;;;;5049395;28;20029;-65
2023/04/18 01:53:33;;;;;;;13.93;9.95;;;307.80;2304.00;;;;;;5049002;28;20040;-66
2023/04/18 01:55:59;;;;;;;15.40;10.55;;;307.80;2227.20;;;;;;5049308;28;20024;-64
2023/04/18 01:58:25;;;;;;;16.20;11.30;;;307.80;2304.00;;;;;;5049149;28;20455;-65
2023/04/18 02:00:52;;;;;;;23.17;12.05;;;307.80;2304.00;;;;;;5049336;28;20100;-64
2023/04/18 02:03:18;;;;;;;20.02;12.15;;;307.70;2278.40;;;;;;5048817;28;20033;-64
2023/04/18 02:05:44;;;;;;;15.55;11.40;;;307.80;2304.00;;;;;;5049647;28;20017;-66
2023/04/18 02:08:10;;;;;;;14.93;12.18;;;307.90;2304.00;;;;;;5049079;28;20367;-64
2023/04/18 02:10:36;;;;;;;15.27;11.18;;;307.70;2304.00;;;;;;5049276;28;20021;-66
2023/04/18 02:13:02;;;;;;;15.43;11.57;;;307.70;2304.00;;;;;;5048932;28;20039;-65
2023/04/18 02:15:28;;;;;;;18.08;12.40;;;307.70;2304.00;;;;;;5035741;28;20021;-65
2023/04/18 02:17:54;;;;;;;16.63;12.18;;;307.70;2304.00;;;;;;5049062;28;20043;-63
2023/04/18 02:20:20;;;;;;;15.38;11.38;;;307.70;2304.00;;;;;;5045247;28;20032;-66
2023/04/18 02:22:46;;;;;;;17.30;12.15;;;307.80;2304.00;;;;;;5049313;28;20044;-63
2023/04/18 02:25:12;;;;;;;18.90;13.50;;;307.60;2150.40;;;;;;5048912;28;20024;-62
2023/04/18 02:27:39;;;;;;;20.50;13.30;;;307.70;2304.00;;;;;;5048770;28;20028;-63
2023/04/18 02:30:05;;;;;;;16.23;11.82;;;307.60;2304.00;;;;;;5048675;28;20017;-65
2023/04/18 02:32:31;;;;;;;14.85;11.60;;;307.50;2304.00;;;;;;5047393;28;20029;-64
2023/04/18 02:34:57;;;;;;;16.73;11.65;;;307.70;2304.00;;;;;;5049075;28;20075;-68
2023/04/18 02:37:22;;;;;;;17.58;12.95;;;307.70;2304.00;;;;;;5049038;28;20021;-64
2023/04/18 02:39:49;;;;;;;19.85;13.50;;;307.70;2304.00;;;;;;5048572;28;20075;-66
2023/04/18 02:42:15;;;;;;;18.33;14.52;;;307.80;2304.00;;;;;;5040745;28;20490;-69
2023/04/18 02:44:41;;;;;;;20.77;14.45;;;307.70;2304.00;;;;;;5043188;28;20029;-65
2023/04/18 02:47:06;;;;;;;21.50;14.63;;;307.80;2304.00;;;;;;5048959;28;20396;-64
2023/04/18 02:49:32;;;;;;;20.65;14.95;;;307.80;2304.00;;;;;;5048988;28;20062;-64
2023/04/18 02:51:58;;;;;;;24.42;15.05;;;307.80;2304.00;;;;;;5048741;28;20163;-63
2023/04/18 02:54:23;;;;;;;21.38;13.63;;;307.80;2304.00;;;;;;5048847;28;20044;-66
2023/04/18 02:56:52;;;;;;;19.23;13.95;;;307.90;2304.00;;;;;;5048128;28;20609;-67
2023/04/18 02:59:18;;;;;;;18.80;12.90;;;307.90;2304.00;;;;;;5048430;28;20040;-64
2023/04/18 03:01:43;;;;;;;15.75;11.93;;;307.70;2304.00;;;;;;5048732;28;20016;-67
2023/04/18 03:04:09;;;;;;;17.65;13.38;;;307.80;2304.00;;;;;;5048869;28;20124;-66
2023/04/18 03:06:35;;;;;;;20.90;14.02;;;307.80;2304.00;;;;;;5052973;28;20067;-67
2023/04/18 03:09:01;;;;;;;20.00;13.07;;;307.80;2304.00;;;;;;5051990;28;20116;-63
2023/04/18 03:11:27;;;;;;;19.20;14.27;;;307.80;2304.00;;;;;;5052655;28;20033;-66
2023/04/18 03:13:53;;;;;;;16.83;12.40;;;307.80;2304.00;;;;;;5051344;28;20041;-68
2023/04/18 03:16:19;;;;;;;17.23;12.43;;;307.90;2304.00;;;;;;5040231;28;20017;-64
2023/04/18 03:18:45;;;;;;;18.67;12.93;;;307.80;2304.00;;;;;;5052552;28;20024;-68
2023/04/18 03:21:11;;;;;;;20.67;13.32;;;307.70;2304.00;;;;;;5052084;28;20033;-64
2023/04/18 03:23:36;;;;;;;19.30;12.98;;;307.70;2304.00;;;;;;5052009;28;20036;-66
2023/04/18 03:26:07;;;;;;;22.30;15.10;;;307.70;2304.00;;;;;;5052634;28;20362;-64
2023/04/18 03:28:32;;;;;;;20.10;13.75;;;307.60;2304.00;;;;;;5051518;28;20064;-64
2023/04/18 03:30:58;;;;;;;19.98;12.70;;;307.70;2304.00;;;;;;5051937;28;20061;-66
2023/04/18 03:33:24;;;;;;;18.20;14.27;;;307.80;2304.00;;;;;;5051880;28;20068;-65
2023/04/18 03:35:50;;;;;;;19.55;14.25;;;307.80;2304.00;;;;;;5051949;28;20493;-64
2023/04/18 03:38:15;;;;;;;17.30;13.82;;;307.80;2304.00;;;;;;5051701;28;20496;-68
2023/04/18 03:40:43;;;;;;;18.70;14.55;;;307.70;2304.00;;;;;;5051991;28;20025;-67
2023/04/18 03:43:09;;;;;;;23.42;15.90;;;307.60;2304.00;;;;;;5051517;28;20131;-66
2023/04/18 03:45:35;;;;;;;18.58;13.52;;;307.70;2304.00;;;;;;5052029;28;20025;-66
2023/04/18 03:48:01;;;;;;;17.02;13.10;;;307.70;2304.00;;;;;;5051365;28;20071;-65
2023/04/18 03:50:27;;;;;;;16.52;12.93;;;307.70;2304.00;;;;;;5051833;28;20029;-65
2023/04/18 03:52:53;;;;;;;14.15;11.18;;;307.60;2304.00;;;;;;5051772;28;20063;-64
2023/04/18 03:55:19;;;;;;;15.13;12.18;;;307.70;2304.00;;;;;;5051473;28;20466;-63
2023/04/18 03:57:45;;;;;;;15.65;11.32;;;307.80;2304.00;;;;;;5051506;28;20021;-66
2023/04/18 04:00:13;;;;;;;22.50;14.93;;;307.60;2304.00;;;;;;5051459;28;20037;-65
2023/04/18 04:02:39;;;;;;;17.58;13.50;;;307.50;2304.00;;;;;;5050510;28;20036;-66
2023/04/18 04:05:05;;;;;;;25.08;15.50;;;307.60;2304.00;;;;;;5051824;28;20024;-66
2023/04/18 04:07:31;;;;;;;17.60;12.65;;;307.60;2304.00;;;;;;5051310;28;20029;-64
2023/04/18 04:09:57;;;;;;;15.23;11.10;;;307.50;2304.00;;;;;;5051276;28;20017;-65
2023/04/18 04:12:24;;;;;;;15.70;11.95;;;307.40;2304.00;;;;;;5051336;28;20021;-66
2023/04/18 04:14:49;;;;;;;18.48;13.18;;;307.40;2304.00;;;;;;5050725;28;20036;-65
2023/04/18 04:17:15;;;;;;;19.45;11.98;;;307.50;2304.00;;;;;;5051209;28;20025;-67
2023/04/18 04:19:41;;;;;;;18.13;12.85;;;307.50;2304.00;;;;;;5049754;28;20522;-67
2023/04/18 04:22:07;;;;;;;19.33;15.27;;;307.50;2304.00;;;;;;5051065;28;20082;-66
2023/04/18 04:24:34;;;;;;;17.88;14.23;;;307.60;2304.00;;;;;;5051267;28;20033;-65
2023/04/18 04:27:00;;;;;;;16.15;12.57;;;307.60;2304.00;;;;;;5050322;28;20449;-66
2023/04/18 04:29:27;;;;;;;20.42;14.32;;;307.70;2304.00;;;;;;5050832;28;20106;-64
2023/04/18 04:31:54;;;;;;;23.25;15.65;;;307.60;2304.00;;;;;;5051152;28;20029;-67
2023/04/18 04:34:20;;;;;;;16.55;12.93;;;307.50;2304.00;;;;;;5050823;28;20033;-68
2023/04/18 04:36:46;;;;;;;18.58;13.57;;;307.60;2304.00;;;;;;5051020;28;20021;-64
2023/04/18 04:39:18;;;;;;;19.90;13.50;;;307.70;2304.00;;;;;;5051005;28;20033;-63
2023/04/18 04:41:46;;;;;;;20.42;14.68;;;307.70;2304.00;;;;;;5051028;28;20032;-69
2023/04/18 04:44:16;;;;;;;22.55;16.63;;;307.80;2304.00;;;;;;5040993;28;20049;-63
2023/04/18 04:46:43;;;;;;;18.38;13.80;;;307.80;2304.00;;;;;;5037226;28;20041;-69
2023/04/18 04:49:10;;;;;;;20.52;15.75;;;307.90;2304.00;;;;;;5050338;28;20083;-69
2023/04/18 04:51:36;;;;;;;17.77;14.70;;;307.90;2304.00;;;;;;5041565;28;20379;-69
2023/04/18 04:54:02;;;;;;;20.80;13.57;;;307.90;2304.00;;;;;;5045628;28;20044;-68
2023/04/18 04:56:28;;;;;;;16.88;12.80;;;307.90;2304.00;;;;;;5050336;28;20025;-69
2023/04/18 04:58:54;;;;;;;20.45;15.05;;;308.10;2304.00;;;;;;5050419;28;20044;-68
2023/04/18 05:01:20;;;;;;;16.77;12.70;;;307.90;2304.00;;;;;;5050248;28;20082;-70
2023/04/18 05:03:46;;;;;;;16.48;11.35;;;307.90;2304.00;;;;;;5049942;28;20041;-70
2023/04/18 05:06:13;;;;;;;17.50;13.55;;;307.70;2304.00;;;;;;5050714;28;20025;-69
2023/04/18 05:08:38;;;;;;;26.45;17.30;;;307.70;2304.00;;;;;;5048935;28;20395;-69
2023/04/18 05:11:04;;;;;;;24.42;18.77;;;307.70;2304.00;;;;;;5050274;28;20024;-66
2023/04/18 05:13:30;;;;;;;24.70;17.42;;;307.80;2304.00;;;;;;5047393;28;20103;-67
2023/04/18 05:15:58;;;;;;;23.45;16.83;;;307.90;2304.00;;;;;;5050049;28;20036;-67
2023/04/18 05:18:23;;;;;;;23.95;17.58;;;308.10;2304.00;;;;;;5049610;28;20490;-67
2023/04/18 05:20:49;;;;;;;38.97;27.58;;;308.10;2304.00;;;;;;5049797;28;20025;-66
2023/04/18 05:23:15;;;;;;;25.60;19.17;;;308.10;2304.00;;;;;;5049960;28;20577;-63
2023/04/18 05:25:41;;;;;;;30.50;24.15;;;332.80;2329.60;;;;;;5049603;28;20021;-64
2023/04/18 05:28:07;;;;;;;43.60;31.08;;;332.90;2329.60;;;;;;5047719;28;20043;-65
2023/04/18 05:30:33;;;;;;;51.58;33.05;;;332.80;2329.60;;;;;;5049870;28;20021;-66
2023/04/18 05:32:59;;;;;;;26.95;22.58;;;308.10;2304.00;;;;;;5048645;28;20035;-64
2023/04/18 05:35:25;;;;;;;26.42;20.95;;;308.10;2304.00;;;;;;5049872;28;20029;-65
2023/04/18 05:37:50;;;;;;;23.90;17.30;;;308.00;2304.00;;;;;;5049282;28;20090;-65
2023/04/18 05:40:16;;;;;;;23.08;20.67;;;308.00;2304.00;;;;;;5049818;28;20348;-66
2023/04/18 05:42:42;;;;;;;28.70;22.25;;;307.90;2304.00;;;;;;5049565;28;20049;-66
2023/04/18 05:45:08;;;;;;;31.90;25.98;;;307.90;2304.00;;;;;;5049515;28;20035;-64
2023/04/18 05:47:33;;;;;;;26.85;22.27;;;308.10;2304.00;;;;;;5046675;28;20435;-64
2023/04/18 05:49:59;;;;;;;27.20;17.92;;;307.90;2304.00;;;;;;5045611;28;20049;-64
2023/04/18 05:52:25;;;;;;;21.98;17.23;;;307.90;2304.00;;;;;;5037811;28;20479;-65
2023/04/18 05:54:51;;;;;;;22.02;17.27;;;307.90;2304.00;;;;;;5030334;28;20124;-64
2023/04/18 05:57:17;;;;;;;35.42;25.85;;;308.10;2304.00;;;;;;5049499;28;20017;-63
2023/04/18 05:59:43;;;;;;;35.53;27.40;;;332.90;2329.60;;;;;;5047409;28;20082;-62
2023/04/18 06:02:12;;;;;;;42.20;31.23;;;333.00;2329.60;;;;;;5037046;28;20475;-62
2023/04/18 06:04:40;;;;;;;41.92;31.05;;;333.10;2329.60;;;;;;5048867;28;20036;-67
2023/04/18 06:07:06;;;;;;;26.17;20.63;;;333.30;2329.60;;;;;;5048692;28;20033;-61
2023/04/18 06:09:32;;;;;;;25.23;20.05;;;333.20;2329.60;;;;;;5048821;28;20033;-67
2023/04/18 06:11:58;;;;;;;15.18;12.35;;;333.30;2329.60;;;;;;5046934;28;20028;-64
2023/04/18 06:14:24;;;;;;;19.33;13.77;;;332.90;2329.60;;;;;;5048163;28;20033;-66
2023/04/18 06:16:50;;;;;;;21.45;15.00;;;333.10;2329.60;;;;;;5048072;28;20027;-63
2023/04/18 06:19:16;;;;;;;19.98;16.52;;;333.10;2329.60;;;;;;5043895;28;20030;-64
2023/04/18 06:21:42;;;;;;;23.17;17.95;;;333.10;2329.60;;;;;;5044731;28;20382;-65
2023/04/18 06:24:08;;;;;;;21.52;14.80;;;333.20;2329.60;;;;;;5048354;28;20504;-67
2023/04/18 06:26:34;;;;;;;20.27;14.85;;;333.10;2329.60;;;;;;5029807;28;20468;-65
2023/04/18 06:29:00;;;;;;;16.27;13.88;;;333.30;2329.60;;;;;;5041553;28;20094;-62
2023/04/18 06:31:26;;;;;;;18.30;13.02;;;333.10;2329.60;;;;;;5040481;28;20037;-67
2023/04/18 06:33:51;;;;;;;17.40;12.68;;;333.20;2329.60;;;;;;5032533;28;20041;-63
2023/04/18 06:36:18;;;;;;;16.35;11.80;;;333.30;2329.60;;;;;;5033441;28;20037;-66
2023/04/18 06:38:43;;;;;;;19.30;11.77;;;333.30;2329.60;;;;;;5048015;28;21219;-62
2023/04/18 06:41:09;;;;;;;16.58;11.23;;;333.40;2329.60;;;;;;5050690;28;20367;-65
2023/04/18 06:43:35;;;;;;;14.07;9.57;;;358.40;2329.60;;;;;;5050966;28;20080;-66
2023/04/18 06:46:03;;;;;;;16.83;11.27;;;358.50;2329.60;;;;;;5050537;28;20017;-64
2023/04/18 06:48:29;;;;;;;16.33;11.23;;;333.60;2329.60;;;;;;5050459;28;20028;-66
2023/04/18 06:50:55;;;;;;;17.20;12.27;;;333.60;2329.60;;;;;;5051234;28;20021;-67
2023/04/18 06:53:20;;;;;;;18.13;11.48;;;333.50;2329.60;;;;;;5050685;28;20027;-66
2023/04/18 06:55:47;;;;;;;30.00;16.85;;;333.70;2329.60;;;;;;5047258;28;20032;-64
2023/04/18 06:58:14;;;;;;;18.75;13.23;;;333.70;2329.60;;;;;;5052072;28;20025;-63
2023/04/18 07:00:41;;;;;;;24.65;18.15;;;333.70;2329.60;;;;;;5050652;28;20029;-66
2023/04/18 07:03:11;;;;;;;19.58;15.82;;;358.40;2329.60;;;;;;5050664;28;20036;-64
2023/04/18 07:05:40;;;;;;;15.93;14.15;;;358.50;2329.60;;;;;;5051815;28;20475;-62
2023/04/18 07:08:06;;;;;;;14.57;11.02;;;358.40;2329.60;;;;;;5049167;28;20147;-63
2023/04/18 07:10:31;;;;;;;20.38;17.45;;;333.50;2329.60;;;;;;5050007;28;20108;-64
2023/04/18 07:12:57;;;;;;;31.60;23.95;;;358.50;2329.60;;;;;;5045622;28;20049;-64
2023/04/18 07:15:23;;;;;;;18.83;16.30;;;358.50;2329.60;;;;;;5041385;28;20179;-64
2023/04/18 07:17:49;;;;;;;12.98;11.68;;;358.50;2329.60;;;;;;5049529;28;20037;-67
2023/04/18 07:20:15;;;;;;;17.42;13.82;;;358.60;2329.60;;;;;;5038570;28;20048;-65
2023/04/18 07:22:41;;;;;;;22.98;20.02;;;358.60;2329.60;;;;;;5032613;28;20057;-65
2023/04/18 07:25:07;;;;;;;21.15;19.00;;;358.70;2329.60;;;;;;5032673;28;20360;-65
2023/04/18 07:27:36;;;;;;;22.67;19.65;;;358.80;2329.60;;;;;;5030701;28;20038;-65
2023/04/18 07:30:03;;;;;;;25.75;16.00;;;359.10;2329.60;;;;;;5029516;28;20022;-63
2023/04/18 07:32:29;;;;;;;19.65;16.38;;;358.90;2329.60;;;;;;5030129;28;20686;-63
2023/04/18 07:34:56;;;;;;;28.67;22.95;;;359.00;2329.60;;;;;;5030019;28;20128;-65
2023/04/18 07:37:22;;;;;;;26.25;21.73;;;359.20;2329.60;;;;;;5030775;28;20368;-65
2023/04/18 07:39:47;;;;;;;23.40;20.13;;;359.10;2329.60;;;;;;5030857;28;20422;-64
2023/04/18 07:42:13;;;;;;;20.15;17.25;;;384.10;2329.60;;;;;;5029428;28;20033;-61
2023/04/18 07:44:39;;;;;;;19.58;16.02;;;359.20;2329.60;;;;;;5030566;28;20064;-64
2023/04/18 07:47:08;;;;;;;13.25;11.73;;;384.00;2329.60;;;;;;5036067;28;20028;-63
2023/04/18 07:49:34;;;;;;;16.80;13.52;;;359.20;2329.60;;;;;;5049870;28;20037;-64
2023/04/18 07:52:00;;;;;;;21.27;17.83;;;384.00;2329.60;;;;;;5044501;28;20036;-65
2023/04/18 07:54:26;;;;;;;20.10;17.92;;;384.10;2329.60;;;;;;5050101;28;20044;-64
2023/04/18 07:56:52;;;;;;;24.08;21.33;;;384.70;2329.60;;;;;;5049276;28;20039;-66
2023/04/18 07:59:18;;;;;;;15.45;13.43;;;384.90;2329.60;;;;;;5035416;28;20040;-63
2023/04/18 08:01:44;;;;;;;22.08;18.70;;;384.70;2329.60;;;;;;5035424;28;20402;-65
2023/04/18 08:04:10;;;;;;;35.35;26.70;;;409.70;2355.20;;;;;;5031713;28;20037;-65
2023/04/18 08:06:36;;;;;;;14.77;13.25;;;409.60;2355.20;;;;;;5028788;28;20100;-62
2023/04/18 08:09:04;;;;;;;13.10;11.48;;;384.50;2329.60;;;;;;5027783;28;20104;-66
2023/04/18 08:11:31;;;;;;;16.13;13.00;;;384.90;2329.60;;;;;;5036808;28;20017;-66
2023/04/18 08:13:56;;;;;;;14.02;11.63;;;384.90;2329.60;;;;;;5034027;28;20568;-66
2023/04/18 08:16:22;;;;;;;13.57;10.05;;;384.70;2329.60;;;;;;5049966;28;20467;-67
2023/04/18 08:18:48;;;;;;;15.20;11.77;;;384.90;2329.60;;;;;;5049614;28;20029;-66
2023/04/18 08:21:14;;;;;;;14.63;11.55;;;409.80;2355.20;;;;;;5030924;28;20109;-63
2023/04/18 08:23:39;;;;;;;13.98;12.43;;;410.00;2355.20;;;;;;5029832;28;20025;-67
2023/04/18 08:26:05;;;;;;;14.27;12.13;;;410.00;2355.20;;;;;;5028686;28;20029;-64
2023/04/18 08:28:31;;;;;;;21.23;13.40;;;409.70;2355.20;;;;;;5029295;28;20026;-63
2023/04/18 08:30:57;;;;;;;40.95;29.55;;;410.20;2355.20;;;;;;5031811;28;20025;-64
2023/04/18 08:33:23;;;;;;;15.27;13.70;;;435.30;2355.20;;;;;;5032450;28;20029;-63
2023/04/18 08:35:50;;;;;;;27.52;20.48;;;435.70;2355.20;;;;;;5029464;28;20034;-65
2023/04/18 08:38:17;;;;;;;23.13;13.85;;;435.60;2355.20;;;;;;5041410;28;20029;-66
2023/04/18 08:40:43;;;;;;;24.10;14.80;;;435.80;2355.20;;;;;;5035984;28;20092;-64
2023/04/18 08:43:13;;;;;;;15.52;10.68;;;460.80;2380.80;;;;;;5047932;28;20045;-64
2023/04/18 08:45:42;;;;;;;22.25;15.85;;;436.10;2355.20;;;;;;5047879;28;20737;-65
2023/04/18 08:48:15;;;;;;;13.43;10.07;;;435.80;2355.20;;;;;;5038164;28;20052;-64
2023/04/18 08:50:41;;;;;;;15.40;12.20;;;435.80;2355.20;;;;;;5040840;28;20502;-62
2023/04/18 08:53:07;;;;;;;19.48;14.23;;;435.60;2355.20;;;;;;5036800;28;20515;-68
2023/04/18 08:55:34;;;;;;;18.23;13.75;;;435.60;2355.20;;;;;;5029472;28;20033;-71
2023/04/18 08:58:00;;;;;;;18.67;15.07;;;435.50;2355.20;;;;;;5029687;28;20017;-71
2023/04/18 09:00:28;;;;;;;19.20;16.58;;;435.30;2355.20;;;;;;5029337;28;20045;-73
2023/04/18 09:02:55;;;;;;;9.88;8.88;;;410.30;2355.20;;;;;;5027796;28;20033;-73
2023/04/18 09:05:22;;;;;;;14.65;12.50;;;409.70;2355.20;;;;;;5028603;28;20091;-74
2023/04/18 09:07:52;;;;;;;11.75;10.43;;;409.70;2355.20;;;;;;5046124;28;20035;-68
2023/04/18 09:10:29;;;;;;;11.05;9.90;;;409.80;2355.20;;;;;;5040587;28;20041;-67
2023/04/18 09:12:57;;;;;;;17.38;14.02;;;435.20;2355.20;;;;;;5030382;28;20499;-71
2023/04/18 09:15:26;;;;;;;8.27;7.05;;;435.40;2355.20;;;;;;5047844;28;20510;-74
2023/04/18 09:17:53;;;;;;;6.65;5.25;;;435.20;2355.20;;;;;;5035953;28;20394;-68
2023/04/18 09:20:42;;;;;;;7.50;6.55;;;410.10;2355.20;;;;;;5048450;28;20402;-73
2023/04/18 09:23:20;;;;;;;30.98;24.67;;;410.10;2355.20;;;;;;5048421;28;20887;-66
2023/04/18 09:25:47;;;;;;;50.30;40.75;;;410.50;2355.20;;;;;;5047716;28;20198;-73
2023/04/18 09:28:28;;;;;;;16.10;14.40;;;435.40;2355.20;;;;;;5046895;28;20028;-67
2023/04/18 09:31:14;;;;;;;28.23;19.73;;;436.10;2355.20;;;;;;5047343;28;20548;-68
2023/04/18 09:33:43;;;;;;;8.55;7.30;;;461.10;2380.80;;;;;;5047114;28;20040;-73
2023/04/18 09:36:23;;;;;;;26.42;18.80;;;461.40;2380.80;;;;;;5047059;28;20047;-70
2023/04/18 09:38:51;;;;;;;50.22;35.90;;;461.60;2380.80;;;;;;5045676;28;20024;-71
2023/04/18 09:41:17;;;;;;;9.18;7.35;;;461.40;2380.80;;;;;;5027745;28;20565;-68
2023/04/18 09:43:46;;;;;;;79.90;58.08;;;486.50;2380.80;;;;;;5028570;28;20045;-74
2023/04/18 09:46:12;;;;;;;8.23;7.10;;;486.80;2380.80;;;;;;5037066;28;20029;-74
2023/04/18 09:48:39;;;;;;;10.40;7.10;;;486.40;2380.80;;;;;;5038882;28;20145;-74
2023/04/18 09:51:07;;;;;;;8.60;6.72;;;461.50;2380.80;;;;;;5027379;28;20029;-73
2023/04/18 09:53:38;;;;;;;11.85;10.57;;;461.50;2380.80;;;;;;5032666;28;20061;-70
2023/04/18 09:56:08;;;;;;;11.45;10.23;;;461.40;2380.80;;;;;;5046928;28;20061;-73
2023/04/18 09:58:39;;;;;;;12.32;10.95;;;486.40;2380.80;;;;;;5041213;28;20024;-69
2023/04/18 10:01:06;;;;;;;23.60;18.35;;;487.10;2380.80;;;;;;5043906;28;20017;-69
2023/04/18 10:03:37;;;;;;;10.60;8.68;;;512.00;2380.80;;;;;;5043599;28;20129;-75
2023/04/18 10:06:04;;;;;;;29.90;25.00;;;487.30;2380.80;;;;;;5037565;28;20028;-69
2023/04/18 10:08:31;;;;;;;15.77;13.68;;;512.20;2380.80;;;;;;5030656;28;20654;-69
2023/04/18 10:10:57;;;;;;;17.08;15.38;;;512.30;2380.80;;;;;;5027182;28;20029;-68
2023/04/18 10:13:25;;;;;;;13.63;12.20;;;512.10;2380.80;;;;;;5028545;28;20030;-72
2023/04/18 10:15:51;;;;;;;13.55;10.73;;;512.00;2380.80;;;;;;5025917;28;20082;-68
2023/04/18 10:18:22;;;;;;;8.00;6.53;;;487.20;2380.80;;;;;;5030662;28;20372;-71
2023/04/18 10:20:48;;;;;;;31.17;25.20;;;512.30;2380.80;;;;;;5043549;28;20116;-73
2023/04/18 10:23:37;;;;;;;10.13;8.65;;;512.40;2329.60;;;;;;5036667;28;20544;-71
2023/04/18 10:26:07;;;;;;;7.05;6.13;;;512.90;2150.40;;;;;;5026606;28;20120;-73
2023/04/18 10:28:51;;;;;;;19.77;13.98;;;537.60;2150.40;;;;;;5042705;28;20060;-71
2023/04/18 10:31:17;;;;;;;11.85;9.27;;;537.70;2150.40;;;;;;5027746;28;20018;-68
2023/04/18 10:33:47;;;;;;;13.20;11.35;;;538.20;2227.20;;;;;;5040391;28;20571;-74
2023/04/18 10:36:15;;;;;;;11.93;10.20;;;512.50;2201.60;;;;;;5027576;28;20033;-75
2023/04/18 10:39:18;;;;;;;11.15;9.75;;;538.00;2176.00;;;;;;5014701;28;20021;-74
2023/04/18 10:41:50;;;;;;;10.32;9.27;;;537.90;2278.40;;;;;;5025614;28;20468;-67
2023/04/18 10:44:17;;;;;;;13.40;9.13;;;512.70;2252.80;;;;;;5026627;28;20054;-74
2023/04/18 10:46:47;;;;;;;18.38;16.45;;;512.50;2176.00;;;;;;5030296;28;20060;-73
2023/04/18 10:49:27;;;;;;;15.00;11.15;;;512.20;2355.20;;;;;;5047129;28;20694;-64
2023/04/18 10:51:54;;;;;;;11.70;9.90;;;512.40;2329.60;;;;;;5046299;28;20028;-74
2023/04/18 10:54:31;;;;;;;11.95;10.05;;;487.10;2380.80;;;;;;5033463;28;20123;-73
2023/04/18 10:57:02;;;;;;;11.63;9.63;;;486.80;2380.80;;;;;;5014724;28;20029;-72
2023/04/18 10:59:31;;;;;;;13.63;10.65;;;486.70;2380.80;;;;;;5026560;28;20479;-70
2023/04/18 11:02:24;;;;;;;18.00;16.15;;;486.40;2380.80;;;;;;5024306;28;20094;-71
2023/04/18 11:04:55;;;;;;;13.35;10.27;;;486.40;2380.80;;;;;;5025687;28;20141;-74
2023/04/18 11:07:40;;;;;;;14.45;11.85;;;461.60;2380.80;;;;;;5028565;28;20417;-69
2023/04/18 11:10:08;;;;;;;17.92;12.77;;;461.00;2380.80;;;;;;5041508;28;20033;-71
2023/04/18 11:12:36;;;;;;;10.15;7.93;;;436.00;2355.20;;;;;;5045825;28;20531;-71
2023/04/18 11:15:08;;;;;;;21.35;13.30;;;435.60;2355.20;;;;;;5030696;28;20120;-65
2023/04/18 11:17:34;;;;;;;9.93;8.50;;;435.30;2355.20;;;;;;5029050;28;20391;-71
2023/04/18 11:20:10;;;;;;;8.55;4.95;;;435.30;2355.20;;;;;;5028086;28;20100;-70
2023/04/18 11:22:51;;;;;;;11.65;7.82;;;435.20;2355.20;;;;;;5047175;28;20048;-73
2023/04/18 11:25:21;;;;;;;10.57;7.10;;;435.20;2355.20;;;;;;5033519;28;20495;-72
2023/04/18 11:27:50;;;;;;;10.88;6.53;;;435.30;2355.20;;;;;;5050032;28;20056;-70
2023/04/18 11:30:16;;;;;;;11.55;9.73;;;435.90;2355.20;;;;;;5048416;28;20025;-73
2023/04/18 11:32:42;;;;;;;8.65;6.53;;;435.90;2355.20;;;;;;5034483;28;20402;-73
2023/04/18 11:35:10;;;;;;;9.88;5.60;;;435.60;2355.20;;;;;;5041287;28;20542;-67
2023/04/18 11:37:37;;;;;;;11.15;7.47;;;435.60;2355.20;;;;;;5044438;28;20021;-74
2023/04/18 11:40:06;;;;;;;12.02;10.50;;;435.60;2355.20;;;;;;5033674;28;20422;-69
2023/04/18 11:42:34;;;;;;;9.63;6.93;;;435.50;2355.20;;;;;;5018961;28;20057;-68
2023/04/18 11:45:02;;;;;;;9.00;6.60;;;435.30;2355.20;;;;;;5029179;28;20395;-69
2023/04/18 11:47:30;;;;;;;28.10;22.27;;;410.20;2355.20;;;;;;5036886;28;20013;-73
2023/04/18 11:50:05;;;;;;;27.10;23.25;;;410.10;2355.20;;;;;;5029292;28;20064;-71
2023/04/18 11:52:33;;;;;;;31.48;27.88;;;410.20;2355.20;;;;;;5020662;28;20056;-72
2023/04/18 11:55:13;;;;;;;23.98;20.98;;;;;;;;;;5032806;28;20124;-68
2023/04/18 11:57:39;;;;;;;26.17;21.80;;;;;;;;;;5029841;28;20033;-67
2023/04/18 12:00:07;;;;;;;98.47;88.07;;;;;;;;;;5036522;28;20364;-73
2023/04/18 12:02:41;;;;;;;27.48;24.00;;;;;;;;;;5018724;28;20030;-69
2023/04/18 12:05:08;;;;;;;50.67;45.03;;;;;;;;;;5021715;28;20069;-68